createdAt,value
2018-06-29T00:03:17.079Z,64.80
2018-06-29T00:08:21.345Z,65.30
2018-06-29T00:13:25.674Z,65.50
2018-06-29T00:18:30.063Z,64.80
2018-06-29T00:23:34.172Z,65.20
2018-06-29T00:28:38.346Z,66.40
2018-06-29T00:33:42.494Z,64.80
2018-06-29T00:38:46.631Z,65.20
2018-06-29T00:43:50.923Z,65.50
2018-06-29T00:48:55.042Z,64.70
2018-06-29T00:53:59.416Z,65.00
2018-06-29T00:59:03.536Z,65.40
2018-06-29T01:04:07.993Z,64.40
2018-06-29T01:09:13.235Z,64.90
2018-06-29T01:14:17.346Z,65.20
2018-06-29T01:19:21.484Z,64.70
2018-06-29T01:24:25.621Z,64.40
2018-06-29T01:29:29.741Z,64.80
2018-06-29T01:34:33.875Z,65.10
2018-06-29T01:39:38.119Z,64.30
2018-06-29T01:44:42.549Z,64.60
2018-06-29T01:49:46.782Z,64.90
2018-06-29T01:54:50.891Z,64.10
2018-06-29T01:59:55.008Z,64.20
2018-06-29T02:04:59.123Z,64.50
2018-06-29T02:10:03.283Z,64.70
2018-06-29T02:15:07.572Z,63.80
2018-06-29T02:20:11.779Z,64.40
2018-06-29T02:25:15.906Z,64.50
2018-06-29T02:30:20.146Z,64.00
2018-06-29T02:35:24.507Z,64.30
2018-06-29T02:40:28.734Z,64.20
2018-06-29T02:45:32.859Z,64.40
2018-06-29T02:50:37.244Z,63.60
2018-06-29T02:55:41.436Z,64.00
2018-06-29T03:00:45.556Z,64.30
2018-06-29T03:05:49.737Z,63.80
2018-06-29T03:10:53.855Z,63.70
2018-06-29T03:15:58.040Z,64.00
2018-06-29T03:21:02.154Z,64.10
2018-06-29T03:26:06.284Z,63.50
2018-06-29T03:31:10.587Z,63.90
2018-06-29T03:36:14.711Z,64.00
2018-06-29T03:41:19.050Z,63.50
2018-06-29T03:46:23.386Z,63.70
2018-06-29T03:51:27.647Z,64.00
2018-06-29T03:56:31.843Z,63.60
2018-06-29T04:01:36.024Z,63.40
2018-06-29T04:06:40.143Z,63.80
2018-06-29T04:11:44.282Z,64.40
2018-06-29T04:16:48.402Z,63.60
2018-06-29T04:21:52.603Z,64.60
2018-06-29T04:26:56.710Z,64.00
2018-06-29T04:32:00.999Z,63.60
2018-06-29T04:37:05.379Z,63.40
2018-06-29T04:42:09.494Z,63.80
2018-06-29T04:47:13.627Z,64.10
2018-06-29T04:52:17.794Z,63.60
2018-06-29T04:57:21.915Z,63.80
2018-06-29T05:02:26.081Z,64.10
2018-06-29T05:07:30.358Z,63.60
2018-06-29T05:12:34.651Z,64.40
2018-06-29T05:17:38.758Z,64.20
2018-06-29T05:22:42.875Z,63.50
2018-06-29T05:32:50.908Z,63.60
2018-06-29T05:37:55.339Z,63.80
2018-06-29T05:42:59.615Z,63.20
2018-06-29T05:48:03.791Z,62.80
2018-06-29T05:53:07.975Z,62.50
2018-06-29T05:58:12.099Z,62.10
2018-06-29T06:03:16.231Z,61.60
2018-06-29T06:08:20.343Z,61.00
2018-06-29T06:13:24.623Z,60.80
2018-06-29T06:18:29.123Z,60.40
2018-06-29T06:23:33.236Z,60.30
2018-06-29T06:28:37.375Z,59.90
2018-06-29T06:38:45.646Z,59.70
2018-06-29T06:43:50.163Z,59.90
2018-06-29T06:48:54.295Z,59.80
2018-06-29T06:53:58.539Z,59.40
2018-06-29T06:59:02.730Z,59.00
2018-06-29T07:04:06.849Z,59.10
2018-06-29T07:09:13.247Z,60.20
2018-06-29T07:14:17.536Z,59.30
2018-06-29T07:19:21.639Z,58.90
2018-06-29T07:29:36.062Z,58.60
2018-06-29T07:34:40.435Z,58.60
2018-06-29T07:39:44.772Z,58.70
2018-06-29T07:44:48.895Z,58.30
2018-06-29T07:49:53.232Z,58.90
2018-06-29T07:54:57.350Z,58.90
2018-06-29T08:00:01.700Z,58.60
2018-06-29T08:05:06.179Z,58.40
2018-06-29T08:10:10.515Z,58.30
2018-06-29T08:15:14.688Z,58.50
2018-06-29T08:20:18.814Z,58.60
2018-06-29T08:25:23.059Z,58.50
2018-06-29T08:30:27.383Z,58.50
2018-06-29T08:35:31.640Z,58.30
2018-06-29T08:40:35.784Z,58.70
2018-06-29T08:45:40.040Z,58.20
2018-06-29T08:50:44.167Z,58.20
2018-06-29T08:55:48.339Z,58.30
2018-06-29T09:00:52.715Z,58.10
2018-06-29T09:05:57.012Z,58.00
2018-06-29T09:11:01.210Z,58.00
2018-06-29T09:16:05.465Z,58.10
2018-06-29T09:21:09.691Z,58.10
2018-06-29T09:26:14.068Z,58.50
2018-06-29T09:31:18.419Z,58.50
2018-06-29T09:36:22.811Z,58.50
2018-06-29T09:41:26.987Z,58.60
2018-06-29T09:46:31.119Z,58.50
2018-06-29T09:51:35.392Z,58.70
2018-06-29T09:56:39.538Z,58.60
2018-06-29T10:06:47.467Z,58.60
2018-06-29T10:11:51.601Z,58.70
2018-06-29T10:16:55.835Z,58.60
2018-06-29T10:22:00.059Z,58.90
2018-06-29T10:27:05.292Z,58.70
2018-06-29T10:32:09.447Z,58.20
2018-06-29T10:37:14.081Z,58.20
2018-06-29T10:42:18.200Z,58.00
2018-06-29T10:47:22.315Z,57.80
2018-06-29T10:52:26.740Z,57.60
2018-06-29T10:57:31.128Z,57.90
2018-06-29T11:02:35.323Z,59.00
2018-06-29T11:07:39.580Z,57.50
2018-06-29T11:12:43.768Z,57.10
2018-06-29T11:17:47.887Z,56.60
2018-06-29T11:22:52.485Z,56.20
2018-06-29T11:27:56.603Z,55.80
2018-06-29T11:33:00.716Z,55.60
2018-06-29T11:38:05.057Z,55.60
2018-06-29T11:43:09.216Z,55.20
2018-06-29T11:48:13.543Z,54.90
2018-06-29T11:53:17.854Z,54.90
2018-06-29T11:58:22.391Z,54.80
2018-06-29T12:03:26.724Z,54.90
2018-06-29T12:08:31.030Z,54.70
2018-06-29T12:13:35.186Z,54.40
2018-06-29T12:18:39.491Z,54.10
2018-06-29T12:23:43.802Z,54.10
2018-06-29T12:28:47.903Z,54.10
2018-06-29T12:33:52.082Z,53.90
2018-06-29T12:38:56.295Z,55.00
2018-06-29T12:44:00.497Z,53.80
2018-06-29T12:49:04.815Z,53.40
2018-06-29T12:54:08.967Z,53.40
2018-06-29T12:59:13.096Z,53.00
2018-06-29T13:04:17.235Z,53.00
2018-06-29T13:09:21.347Z,53.20
2018-06-29T13:14:25.464Z,53.30
2018-06-29T13:19:29.883Z,53.40
2018-06-29T13:24:34.083Z,53.80
2018-06-29T13:29:38.256Z,53.30
2018-06-29T13:34:42.582Z,54.30
2018-06-29T13:39:46.807Z,53.20
2018-06-29T13:44:51.047Z,52.60
2018-06-29T13:49:55.175Z,52.40
2018-06-29T13:54:59.372Z,52.20
2018-06-29T14:00:03.511Z,52.20
2018-06-29T14:05:07.613Z,51.90
2018-06-29T14:10:11.746Z,51.90
2018-06-29T14:15:15.865Z,52.10
2018-06-29T14:20:20.042Z,52.30
2018-06-29T14:25:24.283Z,52.50
2018-06-29T14:30:28.396Z,52.20
2018-06-29T14:35:32.526Z,52.40
2018-06-29T14:40:36.725Z,51.90
2018-06-29T14:45:40.931Z,51.80
2018-06-29T14:50:45.076Z,51.70
2018-06-29T14:55:49.356Z,51.60
2018-06-29T15:00:53.487Z,51.00
2018-06-29T15:05:57.615Z,51.00
2018-06-29T15:11:01.731Z,50.90
2018-06-29T15:16:05.907Z,50.90
2018-06-29T15:21:10.200Z,50.90
2018-06-29T15:26:14.316Z,50.70
2018-06-29T15:31:18.552Z,50.30
2018-06-29T15:36:22.660Z,50.90
2018-06-29T15:41:26.922Z,50.10
2018-06-29T15:46:31.051Z,50.30
2018-06-29T15:51:35.199Z,50.30
2018-06-29T15:56:39.419Z,50.00
2018-06-29T16:01:43.543Z,50.10
2018-06-29T16:06:47.774Z,50.50
2018-06-29T16:11:52.027Z,50.30
2018-06-29T16:16:56.344Z,50.10
2018-06-29T16:22:00.567Z,50.50
2018-06-29T16:27:04.811Z,50.70
2018-06-29T16:32:08.937Z,50.60
2018-06-29T16:37:13.054Z,50.50
2018-06-29T16:42:17.168Z,50.70
2018-06-29T16:47:21.297Z,50.70
2018-06-29T16:52:25.502Z,50.70
2018-06-29T16:57:29.635Z,50.60
2018-06-29T17:02:33.747Z,50.70
2018-06-29T17:07:37.863Z,50.70
2018-06-29T17:12:42.053Z,50.70
2018-06-29T17:17:46.180Z,51.90
2018-06-29T17:22:50.429Z,50.60
2018-06-29T17:27:54.758Z,50.60
2018-06-29T17:32:58.868Z,50.60
2018-06-29T17:38:03.109Z,50.60
2018-06-29T17:43:07.271Z,50.60
2018-06-29T17:48:11.395Z,50.60
2018-06-29T17:58:19.291Z,50.60
2018-06-29T18:03:23.487Z,50.60
2018-06-29T18:08:27.683Z,50.60
2018-06-29T18:13:32.013Z,50.60
2018-06-29T18:18:36.251Z,50.60
2018-06-29T18:23:40.472Z,50.60
2018-06-29T18:28:44.582Z,51.00
2018-06-29T18:33:48.840Z,51.20
2018-06-29T18:38:52.955Z,51.30
2018-06-29T18:43:57.308Z,51.40
2018-06-29T18:49:01.435Z,51.50
2018-06-29T18:54:05.658Z,51.50
2018-06-29T18:59:09.891Z,51.70
2018-06-29T19:04:14.004Z,51.70
2018-06-29T19:09:18.351Z,51.80
2018-06-29T19:14:22.462Z,51.70
2018-06-29T19:19:26.579Z,53.10
2018-06-29T19:24:30.783Z,51.70
2018-06-29T19:29:35.325Z,51.90
2018-06-29T19:34:39.447Z,51.80
2018-06-29T19:39:43.576Z,51.90
2018-06-29T19:44:47.683Z,52.30
2018-06-29T19:49:52.203Z,52.50
2018-06-29T19:54:56.322Z,52.70
2018-06-29T20:00:00.443Z,52.80
2018-06-29T20:05:05.999Z,53.20
2018-06-29T20:10:10.127Z,53.20
2018-06-29T20:15:14.231Z,53.50
2018-06-29T20:20:18.363Z,53.50
2018-06-29T20:25:22.632Z,53.80
2018-06-29T20:30:26.966Z,53.60
2018-06-29T20:35:31.202Z,54.00
2018-06-29T20:40:35.347Z,54.10
2018-06-29T20:45:39.765Z,54.00
2018-06-29T20:50:43.903Z,54.30
2018-06-29T20:55:48.034Z,54.20
2018-06-29T21:00:52.258Z,54.40
2018-06-29T21:05:56.391Z,54.70
2018-06-29T21:11:00.505Z,54.80
2018-06-29T21:16:04.615Z,55.30
2018-06-29T21:21:08.866Z,55.50
2018-06-29T21:26:12.986Z,55.00
2018-06-29T21:31:17.116Z,54.90
2018-06-29T21:36:21.359Z,55.00
2018-06-29T21:41:25.468Z,55.10
2018-06-29T21:46:29.597Z,55.10
2018-06-29T21:51:33.890Z,55.10
2018-06-29T21:56:38.004Z,55.20
2018-06-29T22:01:42.135Z,55.30
2018-06-29T22:06:46.271Z,55.50
2018-06-29T22:11:50.379Z,55.70
2018-06-29T22:16:54.494Z,55.70
2018-06-29T22:21:58.623Z,55.60
2018-06-29T22:27:02.746Z,55.50
2018-06-29T22:32:07.029Z,55.80
2018-06-29T22:37:11.204Z,56.40
2018-06-29T22:42:15.311Z,55.90
2018-06-29T22:47:19.435Z,55.90
2018-06-29T22:52:23.704Z,56.00
2018-06-29T22:57:27.839Z,56.20
2018-06-29T23:02:31.959Z,56.40
2018-06-29T23:07:36.291Z,56.50
2018-06-29T23:12:40.395Z,56.60
2018-06-29T23:17:44.853Z,56.80
2018-06-29T23:22:48.971Z,56.70
2018-06-29T23:27:53.109Z,57.00
2018-06-29T23:32:57.351Z,57.10
2018-06-29T23:38:01.495Z,57.10
2018-06-29T23:43:05.903Z,57.50
2018-06-29T23:48:10.019Z,57.60
2018-06-29T23:53:14.271Z,57.70
2018-06-29T23:58:18.395Z,57.90
